Time;durP1;ratioP1;P1;durP2;ratioP2;P2;SDS_P1;SDS_P2;PMS_P1;PMS_P2;Temp;Humidity;BMP_temperature;BMP_pressure;BME280_temperature;BME280_humidity;BME280_pressure;Samples;Min_cycle;Max_cycle;Signal;HPM_P1;HPM_P2
2021/08/08 00:00:08;;;;;;;;;;;19.00;82.40;;;18.23;73.75;99339.72;4989908;28;20460;-82
2021/08/08 00:02:39;;;;;;;;;;;19.00;82.00;;;18.17;74.35;99328.66;4989811;28;19925;-82
2021/08/08 00:05:08;;;;;;;;;;;19.00;82.70;;;18.18;75.06;99337.72;4972148;28;19934;-82
2021/08/08 00:07:36;;;;;;;;;;;19.00;83.00;;;18.18;75.10;99329.47;4988661;28;19922;-82
2021/08/08 00:10:03;;;;;;;;;;;19.00;83.30;;;18.19;75.22;99335.84;4972104;28;20370;-82
2021/08/08 00:12:30;;;;;;;;;;;18.90;83.40;;;18.14;75.37;99325.59;4989530;28;19989;-82
2021/08/08 00:14:57;;;;;;;;;;;18.90;83.30;;;18.15;75.67;99328.09;4974821;28;20364;-82
2021/08/08 00:17:26;;;;;;;;;;;18.90;83.60;;;18.20;76.00;99335.56;4992696;28;19929;-82
2021/08/08 00:19:53;;;;;;;;;;;18.90;84.50;;;18.18;76.23;99334.97;4993626;28;20012;-82
2021/08/08 00:22:20;;;;;;;;;;;18.90;84.50;;;18.15;76.69;99341.84;4975942;28;20028;-82
2021/08/08 00:24:48;;;;;;;;;;;18.80;84.70;;;18.15;77.44;99335.53;4976113;28;19956;-82
2021/08/08 00:27:15;;;;;;;;;;;18.80;85.60;;;18.13;77.89;99343.22;4992847;28;20388;-82
2021/08/08 00:29:42;;;;;;;;;;;18.80;86.10;;;18.10;77.73;99343.72;4975912;28;20377;-82
2021/08/08 00:32:09;;;;;;;;;;;18.70;86.00;;;18.05;78.52;99341.78;4975778;28;19932;-82
2021/08/08 00:34:41;;;;;;;;;;;18.70;86.40;;;18.06;78.55;99339.84;4975750;28;20446;-82
2021/08/08 00:37:09;;;;;;;;;;;18.70;86.50;;;18.06;78.44;99340.66;4974974;28;19945;-82
2021/08/08 00:39:36;;;;;;;;;;;18.70;86.50;;;18.00;77.86;99343.66;4975536;28;19957;-82
2021/08/08 00:42:04;;;;;;;;;;;18.70;86.30;;;18.00;78.71;99338.16;4975639;28;19926;-82
2021/08/08 00:44:31;;;;;;;;;;;18.70;86.70;;;17.97;79.07;99340.34;4975611;28;20306;-82
2021/08/08 00:46:59;;;;;;;;;;;18.70;86.80;;;17.97;79.08;99347.75;4974787;28;19932;-82
2021/08/08 00:49:27;;;;;;;;;;;18.70;87.00;;;18.01;78.95;99348.06;4987446;28;20433;-82
2021/08/08 00:51:56;;;;;;;;;;;18.70;86.80;;;18.02;79.16;99347.81;4991676;28;20032;-82
2021/08/08 00:54:28;;;;;;;;;;;18.70;87.00;;;18.01;78.78;99345.31;4991612;28;19925;-82
2021/08/08 00:56:56;;;;;;;;;;;18.70;86.80;;;18.02;78.98;99345.06;4990518;28;20342;-82
2021/08/08 00:59:23;;;;;;;;;;;18.70;87.00;;;18.05;78.80;99351.94;4991462;28;20024;-82
2021/08/08 01:01:54;;;;;;;;;;;18.60;86.80;;;18.03;78.78;99341.22;4991474;28;20357;-82
2021/08/08 01:04:23;;;;;;;;;;;18.60;86.90;;;18.02;78.85;99352.50;4991510;28;20356;-83
2021/08/08 01:07:03;;;;;;;;;;;18.60;87.00;;;18.02;78.54;99347.81;4990741;28;19926;-82
2021/08/08 01:09:35;;;;;;;;;;;18.60;86.90;;;18.01;78.48;99353.56;4991318;28;20287;-82
2021/08/08 01:12:03;;;;;;;;;;;18.70;87.00;;;17.99;79.04;99353.81;4975824;28;20524;-82
2021/08/08 01:14:33;;;;;;;;;;;18.70;87.10;;;18.01;78.84;99350.81;4971726;28;19922;-82
2021/08/08 01:17:04;;;;;;;;;;;18.70;87.10;;;17.97;79.13;99351.34;4971065;28;19922;-82
2021/08/08 01:19:36;;;;;;;;;;;18.60;86.90;;;17.98;78.72;99357.69;4971656;28;19995;-82
2021/08/08 01:22:06;;;;;;;;;;;18.60;86.60;;;17.93;78.53;99357.63;4973142;28;19926;-82
2021/08/08 01:24:35;;;;;;;;;;;18.60;86.40;;;17.93;78.68;99355.72;4971054;28;19953;-82
2021/08/08 01:27:03;;;;;;;;;;;18.70;86.60;;;17.97;78.60;99358.75;4969978;28;19926;-83
2021/08/08 01:29:31;;;;;;;;;;;18.70;86.50;;;17.85;78.12;99352.59;4971534;28;20271;-82
2021/08/08 01:31:58;;;;;;;;;;;18.70;86.10;;;17.83;78.58;99363.84;4971499;28;20382;-82
2021/08/08 01:34:33;;;;;;;;;;;18.70;85.90;;;17.82;78.57;99358.59;4971604;28;20780;-82
2021/08/08 01:37:04;;;;;;;;;;;18.70;85.90;;;17.88;78.30;99363.09;4970660;28;19926;-82
2021/08/08 01:39:34;;;;;;;;;;;18.70;85.90;;;17.83;77.79;99366.59;4971272;28;19926;-82
2021/08/08 01:42:08;;;;;;;;;;;18.70;85.60;;;17.86;78.23;99365.25;4971447;28;19929;-82
2021/08/08 01:44:46;;;;;;;;;;;18.70;85.80;;;17.77;78.03;99367.66;4971170;28;19922;-82
2021/08/08 01:47:15;;;;;;;;;;;18.70;85.80;;;17.79;78.37;99359.97;4970405;28;19926;-82
2021/08/08 01:49:44;;;;;;;;;;;18.70;85.60;;;17.77;78.39;99362.13;4970874;28;19992;-82
2021/08/08 01:52:13;;;;;;;;;;;18.70;85.70;;;17.82;78.17;99364.94;4970945;28;19948;-82
2021/08/08 01:54:47;;;;;;;;;;;18.70;85.40;;;17.85;78.23;99358.13;4971006;28;19933;-82
2021/08/08 01:57:22;;;;;;;;;;;18.70;85.80;;;17.89;78.10;99353.75;4970248;28;19926;-82
2021/08/08 01:59:55;;;;;;;;;;;18.70;85.80;;;17.93;77.94;99361.22;4970862;28;19926;-82
2021/08/08 02:02:22;;;;;;;;;;;18.70;85.70;;;17.88;77.59;99358.44;4970858;28;19932;-82
2021/08/08 02:04:59;;;;;;;;;;;18.70;85.50;;;17.90;77.69;99372.75;4970853;28;20048;-82
2021/08/08 02:07:26;;;;;;;;;;;18.70;85.50;;;17.88;77.89;99369.44;4970237;28;19961;-82
2021/08/08 02:09:56;;;;;;;;;;;18.70;85.50;;;17.88;77.63;99380.44;4970898;28;19930;-82
2021/08/08 02:12:25;;;;;;;;;;;18.70;85.40;;;17.83;77.31;99387.78;4970676;28;19926;-82
2021/08/08 02:14:52;;;;;;;;;;;18.70;85.30;;;17.79;77.74;99381.97;4970673;28;19922;-83
2021/08/08 02:17:28;;;;;;;;;;;18.70;85.20;;;17.86;77.49;99379.88;4969830;28;19925;-82
2021/08/08 02:19:55;;;;;;;;;;;18.70;85.00;;;17.86;77.20;99388.13;4970431;28;20343;-82
2021/08/08 02:22:24;;;;;;;;;;;18.70;85.20;;;17.86;77.45;99393.63;4970230;28;19926;-82
2021/08/08 02:24:52;;;;;;;;;;;18.70;85.40;;;17.86;77.64;99390.88;4970351;28;19926;-82
2021/08/08 02:27:32;;;;;;;;;;;18.70;85.30;;;17.84;77.44;99393.06;4969630;28;19926;-82
2021/08/08 02:30:12;;;;;;;;;;;18.60;85.20;;;17.87;77.34;99395.28;4970369;28;19961;-82
2021/08/08 02:32:39;;;;;;;;;;;18.60;85.20;;;17.86;77.17;99388.13;4970296;28;19938;-82
2021/08/08 02:35:08;;;;;;;;;;;18.60;85.20;;;17.83;76.97;99394.13;4970209;28;19922;-82
2021/08/08 02:37:38;;;;;;;;;;;18.60;84.90;;;17.82;77.43;99388.88;4968832;28;20346;-82
2021/08/08 02:40:06;;;;;;;;;;;18.60;85.10;;;17.83;76.83;99394.13;4970309;28;20013;-82
2021/08/08 02:42:35;;;;;;;;;;;18.60;85.00;;;17.79;77.09;99404.81;4970216;28;20029;-82
2021/08/08 02:45:02;;;;;;;;;;;18.60;84.70;;;17.74;76.64;99403.94;4970007;28;20378;-82
2021/08/08 02:47:30;;;;;;;;;;;18.60;84.20;;;17.80;77.13;99411.16;4969193;28;20012;-82
2021/08/08 02:49:58;;;;;;;;;;;18.60;85.00;;;17.79;76.81;99407.56;5001633;23;19922;-87
2021/08/08 02:52:27;;;;;;;;;;;18.60;84.50;;;17.82;76.83;99417.25;5005459;28;19929;-86
2021/08/08 02:54:56;;;;;;;;;;;18.60;85.00;;;17.76;76.91;99416.34;5007551;28;19925;-87
2021/08/08 02:57:24;;;;;;;;;;;18.60;84.60;;;17.79;76.57;99426.00;5004845;28;20020;-87
2021/08/08 02:59:55;;;;;;;;;;;18.60;84.50;;;17.77;76.43;99431.75;5005478;28;19929;-86
2021/08/08 03:02:22;;;;;;;;;;;18.60;84.70;;;17.78;76.56;99429.84;4990605;28;19964;-87
2021/08/08 03:04:50;;;;;;;;;;;18.60;84.60;;;17.80;76.53;99433.19;5005228;28;19932;-87
2021/08/08 03:07:17;;;;;;;;;;;18.60;84.70;;;17.81;75.73;99434.84;4989662;28;20460;-87
2021/08/08 03:09:44;;;;;;;;;;;18.60;83.60;;;17.82;76.19;99431.00;4990460;28;19925;-86
2021/08/08 03:12:11;;;;;;;;;;;18.50;84.50;;;17.79;75.76;99437.84;5005355;28;19926;-87
2021/08/08 03:14:41;;;;;;;;;;;18.50;84.10;;;17.76;76.06;99448.53;4989230;28;19960;-86
2021/08/08 03:17:10;;;;;;;;;;;18.50;84.40;;;17.73;75.91;99444.38;5007407;28;19936;-87
2021/08/08 03:19:38;;;;;;;;;;;18.50;84.40;;;17.77;75.95;99455.72;5008383;28;20025;-87
2021/08/08 03:22:06;;;;;;;;;;;18.50;84.30;;;17.75;75.79;99461.47;5008285;28;19971;-86
2021/08/08 03:24:35;;;;;;;;;;;18.50;84.30;;;17.75;75.83;99457.88;5008348;28;19925;-87
2021/08/08 03:27:03;;;;;;;;;;;18.40;84.10;;;17.77;74.52;99461.22;5007623;28;20022;-87
2021/08/08 03:29:30;;;;;;;;;;;18.50;83.70;;;17.66;74.88;99474.00;5008192;28;19925;-86
2021/08/08 03:31:57;;;;;;;;;;;18.50;83.60;;;17.66;75.46;99471.25;5007964;28;20023;-86
2021/08/08 03:34:25;;;;;;;;;;;18.50;83.90;;;17.65;74.95;99490.78;5008262;28;19948;-86
2021/08/08 03:36:53;;;;;;;;;;;18.50;83.50;;;17.62;75.06;99486.63;5007298;28;19922;-85
2021/08/08 03:39:25;;;;;;;;;;;18.50;83.20;;;17.66;75.02;99490.53;5008065;28;20367;-87
2021/08/08 03:41:52;;;;;;;;;;;18.50;83.40;;;17.72;74.71;99488.66;5008135;28;19956;-86
2021/08/08 03:44:19;;;;;;;;;;;18.50;83.20;;;17.73;74.63;99490.34;5009429;28;19926;-86
2021/08/08 03:46:47;;;;;;;;;;;18.40;82.90;;;17.71;74.25;99495.28;5007467;28;19925;-86
2021/08/08 03:49:14;;;;;;;;;;;18.40;82.90;;;17.70;74.49;99494.41;5008710;28;20469;-87
2021/08/08 03:51:43;;;;;;;;;;;18.40;83.10;;;17.69;74.61;99508.47;4991675;28;20051;-86
2021/08/08 03:54:10;;;;;;;;;;;18.40;83.10;;;17.67;74.07;99505.09;4991709;28;19999;-87
2021/08/08 03:56:37;;;;;;;;;;;18.40;83.10;;;17.64;73.63;99511.13;4990708;28;20013;-86
2021/08/08 03:59:05;;;;;;;;;;;18.40;83.00;;;17.67;74.16;99516.97;4991358;28;20061;-86
2021/08/08 04:01:33;;;;;;;;;;;18.40;83.20;;;17.59;74.09;99510.00;4991731;28;19964;-86
2021/08/08 04:04:01;;;;;;;;;;;18.40;83.10;;;17.63;74.33;99525.97;4991406;28;20416;-86
2021/08/08 04:06:28;;;;;;;;;;;18.30;83.10;;;17.63;74.19;99531.47;4990675;28;20283;-86
2021/08/08 04:08:58;;;;;;;;;;;18.30;83.00;;;17.56;74.01;99523.44;4991531;28;19980;-86
2021/08/08 04:11:25;;;;;;;;;;;18.30;82.90;;;17.58;74.38;99524.81;4991533;28;20026;-86
2021/08/08 04:13:52;;;;;;;;;;;18.30;83.10;;;17.63;74.11;99528.72;4991441;28;19925;-87
2021/08/08 04:16:20;;;;;;;;;;;18.30;83.10;;;17.64;74.32;99538.66;4990721;28;19929;-86
2021/08/08 04:18:47;;;;;;;;;;;18.30;83.50;;;17.62;74.20;99535.31;4991488;28;19952;-87
2021/08/08 04:21:15;;;;;;;;;;;18.30;83.40;;;17.56;74.29;99545.44;4991281;28;20016;-87
2021/08/08 04:23:43;;;;;;;;;;;18.30;83.60;;;17.58;74.25;99544.09;5009318;28;19975;-87
2021/08/08 04:26:12;;;;;;;;;;;18.20;83.10;;;17.58;74.34;99544.09;4990501;28;19925;-86
2021/08/08 04:28:40;;;;;;;;;;;18.20;83.30;;;17.55;74.12;99535.50;4991260;28;19921;-87
2021/08/08 04:31:07;;;;;;;;;;;18.20;83.20;;;17.54;74.51;99556.69;4991156;28;19936;-87
2021/08/08 04:33:35;;;;;;;;;;;18.20;83.20;;;17.57;74.23;99550.69;4991318;28;19956;-86
2021/08/08 04:36:03;;;;;;;;;;;18.20;83.20;;;17.55;74.08;99558.38;4990450;28;19925;-86
2021/08/08 04:38:31;;;;;;;;;;;18.20;83.10;;;17.55;74.09;99561.13;4991264;28;19925;-86
2021/08/08 04:40:58;;;;;;;;;;;18.20;83.10;;;17.51;73.90;99557.19;4991228;28;19925;-87
2021/08/08 04:43:27;;;;;;;;;;;18.20;82.90;;;17.56;74.28;99568.28;4991257;28;19936;-87
2021/08/08 04:45:54;;;;;;;;;;;18.20;83.10;;;17.57;74.10;99558.94;5008160;28;19964;-87
2021/08/08 04:48:21;;;;;;;;;;;18.20;83.30;;;17.49;73.73;99573.13;4990963;28;20365;-86
2021/08/08 04:50:50;;;;;;;;;;;18.30;83.00;;;17.48;74.19;99574.22;4991072;28;19987;-86
2021/08/08 04:53:18;;;;;;;;;;;18.30;83.00;;;17.46;73.91;99570.88;4991075;28;19926;-85
2021/08/08 04:55:46;;;;;;;;;;;18.30;82.80;;;17.49;74.34;99573.13;4991121;28;19929;-87
2021/08/08 04:58:14;;;;;;;;;;;18.20;83.10;;;17.50;74.32;99572.03;4990461;28;20015;-91
2021/08/08 05:00:42;;;;;;;;;;;18.20;83.00;;;17.50;74.17;99566.53;4993289;28;19968;-91
2021/08/08 05:03:09;;;;;;;;;;;18.20;83.20;;;17.47;74.30;99578.03;4995222;28;19921;-90
2021/08/08 05:05:37;;;;;;;;;;;18.20;83.10;;;17.48;74.05;99579.72;4994279;28;20301;-90
2021/08/08 05:08:04;;;;;;;;;;;18.20;82.80;;;17.52;74.38;99575.38;5011528;28;19921;-90
2021/08/08 05:10:33;;;;;;;;;;;18.30;83.00;;;17.56;74.08;99582.03;4994826;28;19926;-90
2021/08/08 05:13:00;;;;;;;;;;;18.40;82.90;;;17.49;74.25;99581.38;4994126;28;20032;-89
2021/08/08 05:15:27;;;;;;;;;;;18.50;82.50;;;17.50;74.36;99585.78;4994462;28;19925;-89
2021/08/08 05:17:58;;;;;;;;;;;18.50;81.90;;;17.52;74.74;99591.06;4993428;28;19932;-88
2021/08/08 05:20:26;;;;;;;;;;;18.60;81.70;;;17.55;74.90;99593.28;4994209;28;20356;-89
2021/08/08 05:22:54;;;;;;;;;;;18.60;82.30;;;17.55;74.69;99590.53;4994310;28;19921;-89
2021/08/08 05:25:21;;;;;;;;;;;18.60;82.20;;;17.58;74.70;99601.03;4994329;28;19925;-89
2021/08/08 05:27:48;;;;;;;;;;;18.60;82.10;;;17.58;74.51;99606.53;4993427;28;19983;-89
2021/08/08 05:30:16;;;;;;;;;;;18.70;82.00;;;17.58;74.40;99601.84;4994159;28;19932;-89
2021/08/08 05:32:43;;;;;;;;;;;18.70;81.40;;;17.62;74.30;99612.38;4993906;28;19925;-89
2021/08/08 05:35:12;;;;;;;;;;;18.80;81.30;;;17.60;74.75;99615.38;4994031;28;19925;-90
2021/08/08 05:37:40;;;;;;;;;;;18.80;81.30;;;17.62;74.81;99617.88;4993191;28;19948;-89
2021/08/08 05:40:08;;;;;;;;;;;18.90;81.50;;;17.63;75.51;99620.38;4993989;28;19925;-89
2021/08/08 05:42:47;;;;;;;;;;;18.90;81.60;;;17.64;75.08;99621.19;4993979;28;19932;-91
2021/08/08 05:45:14;;;;;;;;;;;18.80;81.60;;;17.63;74.54;99630.53;4993730;28;20032;-89
2021/08/08 05:47:41;;;;;;;;;;;18.70;81.90;;;17.56;74.98;99623.28;4993470;28;19961;-82
2021/08/08 05:50:09;;;;;;;;;;;18.70;82.10;;;17.54;74.84;99625.47;5007208;28;19937;-91
2021/08/08 05:52:38;;;;;;;;;;;18.70;82.10;;;17.58;75.34;99634.88;5011516;28;19929;-86
2021/08/08 05:55:06;;;;;;;;;;;18.70;82.60;;;17.62;75.13;99634.38;5009978;28;19922;-86
2021/08/08 05:57:33;;;;;;;;;;;18.60;82.30;;;17.64;75.05;99634.97;5009178;28;19925;-83
2021/08/08 06:00:00;;;;;;;;;;;18.70;82.20;;;17.57;75.12;99643.38;5011074;28;19925;-83
2021/08/08 06:02:29;;;;;;;;;;;18.60;82.10;;;17.55;74.59;99651.91;5009758;28;19925;-87
2021/08/08 06:04:56;;;;;;;;;;;18.60;82.20;;;17.51;75.68;99645.22;5009429;28;19925;-88
2021/08/08 06:07:23;;;;;;;;;;;18.60;82.60;;;17.54;74.88;99650.22;5008299;28;19926;-87
2021/08/08 06:09:52;;;;;;;;;;;18.60;82.30;;;17.47;74.98;99663.31;5009638;28;19921;-88
2021/08/08 06:12:19;;;;;;;;;;;18.50;82.40;;;17.45;75.13;99657.25;5010032;28;19930;-88
2021/08/08 06:14:46;;;;;;;;;;;18.60;82.50;;;17.51;75.33;99663.66;5009670;28;19980;-89
2021/08/08 06:17:13;;;;;;;;;;;18.70;82.10;;;17.53;75.86;99667.81;5009426;28;19941;-88
2021/08/08 06:19:40;;;;;;;;;;;18.80;82.10;;;17.62;75.68;99670.16;5012206;28;19964;-94
2021/08/08 06:22:13;;;;;;;;;;;19.00;81.30;;;17.68;76.20;99669.13;5012815;28;19922;-93
2021/08/08 06:24:41;;;;;;;;;;;19.00;81.40;;;17.63;75.47;99669.91;5010971;28;19926;-87
2021/08/08 06:27:10;;;;;;;;;;;18.90;81.30;;;17.63;75.12;99680.06;5008520;28;20277;-84
2021/08/08 06:29:38;;;;;;;;;;;18.90;81.50;;;17.62;74.83;99678.41;5009270;28;20691;-85
2021/08/08 06:32:06;;;;;;;;;;;18.80;81.80;;;17.61;75.27;99687.72;5009568;28;19922;-93
2021/08/08 06:34:34;;;;;;;;;;;18.70;82.10;;;17.55;75.47;99693.19;5009572;28;19934;-91
2021/08/08 06:37:01;;;;;;;;;;;18.70;82.30;;;17.57;75.39;99698.41;5008600;28;19972;-88
2021/08/08 06:39:28;;;;;;;;;;;18.70;82.40;;;17.62;75.04;99700.41;5008976;28;19945;-88
2021/08/08 06:41:55;;;;;;;;;;;18.70;82.20;;;17.65;75.24;99699.91;5008995;28;20014;-87
2021/08/08 06:44:32;;;;;;;;;;;18.70;82.50;;;17.65;75.10;99702.66;5009174;28;20594;-89
2021/08/08 06:46:59;;;;;;;;;;;18.60;82.40;;;17.64;75.29;99698.25;5008227;28;19929;-89
2021/08/08 06:49:26;;;;;;;;;;;18.60;82.70;;;17.64;75.00;99706.50;5010160;28;20012;-89
2021/08/08 06:51:53;;;;;;;;;;;18.60;82.40;;;17.67;75.05;99714.25;4992534;28;19979;-89
2021/08/08 06:54:20;;;;;;;;;;;18.50;82.90;;;17.68;74.97;99705.72;4992931;28;20052;-89
2021/08/08 06:56:47;;;;;;;;;;;18.60;82.90;;;17.70;74.96;99713.75;4991866;28;19925;-87
2021/08/08 06:59:14;;;;;;;;;;;18.60;82.80;;;17.70;75.70;99708.25;4992084;28;19947;-87
2021/08/08 07:01:43;;;;;;;;;;;18.60;83.30;;;17.67;75.35;99708.72;4992427;28;19926;-88
2021/08/08 07:04:10;;;;;;;;;;;18.60;83.10;;;17.66;75.36;99713.41;4992751;28;19925;-89
2021/08/08 07:06:38;;;;;;;;;;;18.60;82.60;;;17.68;75.46;99715.91;4991782;28;20012;-90
2021/08/08 07:09:07;;;;;;;;;;;18.60;82.80;;;17.69;74.63;99717.59;4992539;28;20019;-87
2021/08/08 07:11:35;;;;;;;;;;;18.70;82.70;;;17.66;75.36;99718.09;4992248;28;19922;-87
2021/08/08 07:14:03;;;;;;;;;;;18.80;82.30;;;17.69;75.49;99718.44;4992406;28;19979;-87
2021/08/08 07:16:32;;;;;;;;;;;19.00;81.20;;;17.70;74.90;99713.75;4992648;28;19925;-90
2021/08/08 07:19:01;;;;;;;;;;;19.30;80.50;;;17.71;75.54;99713.50;4993557;28;19921;-91
2021/08/08 07:21:28;;;;;;;;;;;19.50;79.60;;;17.72;75.78;99723.41;4992764;28;20006;-82
2021/08/08 07:23:58;;;;;;;;;;;19.70;79.30;;;17.79;75.32;99728.75;4991993;28;20397;-81
2021/08/08 07:26:25;;;;;;;;;;;19.80;78.50;;;17.73;75.50;99736.09;4991039;28;20008;-81
2021/08/08 07:28:52;;;;;;;;;;;19.70;78.70;;;17.70;75.43;99722.00;4991852;28;20028;-81
2021/08/08 07:31:19;;;;;;;;;;;19.60;78.90;;;17.72;75.08;99730.84;4991723;28;19930;-81
2021/08/08 07:33:47;;;;;;;;;;;19.50;79.50;;;17.71;75.37;99731.94;4991775;28;19929;-79
2021/08/08 07:36:15;;;;;;;;;;;19.40;79.80;;;17.78;75.20;99729.81;4990370;28;19925;-87
2021/08/08 07:38:43;;;;;;;;;;;19.60;79.20;;;17.82;75.50;99732.91;5009450;28;19925;-86
2021/08/08 07:41:11;;;;;;;;;;;19.70;78.90;;;17.86;75.69;99734.09;4990899;28;19925;-86
2021/08/08 07:43:38;;;;;;;;;;;19.70;79.20;;;17.92;75.44;99742.19;4991436;28;20016;-85
2021/08/08 07:46:05;;;;;;;;;;;19.80;79.20;;;17.97;75.06;99739.53;4990656;28;19926;-85
2021/08/08 07:48:32;;;;;;;;;;;20.10;78.00;;;18.01;74.54;99736.25;4991398;28;19925;-86
2021/08/08 07:51:00;;;;;;;;;;;20.30;77.40;;;18.08;74.46;99734.16;5007389;28;20378;-86
2021/08/08 07:53:28;;;;;;;;;;;20.40;76.40;;;18.08;73.83;99746.00;5009698;28;19928;-85
2021/08/08 07:55:56;;;;;;;;;;;20.50;75.80;;;18.12;74.21;99743.59;5007406;28;19928;-85
2021/08/08 07:58:24;;;;;;;;;;;20.50;75.90;;;18.15;74.57;99754.94;5007356;28;20294;-85
2021/08/08 08:00:51;;;;;;;;;;;20.50;75.90;;;18.24;75.62;99749.84;5007694;28;19925;-86
2021/08/08 08:03:18;;;;;;;;;;;20.60;76.10;;;18.29;75.43;99755.38;5007846;28;20632;-86
2021/08/08 08:05:45;;;;;;;;;;;20.80;75.80;;;18.36;74.44;99752.47;5007596;28;19922;-84
2021/08/08 08:08:13;;;;;;;;;;;21.00;74.90;;;18.39;75.02;99760.22;5008489;28;20341;-85
2021/08/08 08:10:41;;;;;;;;;;;21.00;75.00;;;18.41;73.56;99760.81;5007695;28;19926;-87
2021/08/08 08:13:09;;;;;;;;;;;20.90;75.00;;;18.40;73.71;99761.88;5007663;28;19925;-85
2021/08/08 08:15:36;;;;;;;;;;;20.90;75.10;;;18.49;75.28;99762.28;5007619;28;19987;-86
2021/08/08 08:18:03;;;;;;;;;;;21.00;75.30;;;18.58;74.46;99769.00;5006674;28;19926;-86
2021/08/08 08:20:30;;;;;;;;;;;21.20;74.90;;;18.57;71.59;99778.38;5008936;28;19961;-86
2021/08/08 08:22:57;;;;;;;;;;;21.10;73.40;;;18.56;72.61;99776.69;5009036;28;20039;-85
2021/08/08 08:25:24;;;;;;;;;;;21.20;73.20;;;18.61;72.74;99790.53;5007574;28;20434;-85
2021/08/08 08:27:53;;;;;;;;;;;21.20;73.40;;;18.63;70.83;99777.34;5006807;28;19926;-85
2021/08/08 08:30:20;;;;;;;;;;;21.10;72.50;;;18.71;73.43;99787.06;5008689;28;19925;-85
2021/08/08 08:32:47;;;;;;;;;;;21.20;73.60;;;18.80;74.12;99788.34;5007604;28;19925;-83
2021/08/08 08:35:15;;;;;;;;;;;21.30;73.60;;;18.87;71.82;99785.41;5009043;28;19979;-82
2021/08/08 08:37:42;;;;;;;;;;;21.40;72.50;;;18.91;71.75;99794.81;5009490;28;19932;-82
2021/08/08 08:40:10;;;;;;;;;;;21.50;72.70;;;18.95;72.36;99788.50;5010162;28;20024;-82
2021/08/08 08:42:45;;;;;;;;;;;21.60;72.20;;;18.91;69.90;99792.06;5010337;28;19968;-83
2021/08/08 08:45:14;;;;;;;;;;;21.50;71.30;;;18.93;71.01;99803.66;5010232;28;20014;-83
2021/08/08 08:47:42;;;;;;;;;;;21.40;71.70;;;18.98;70.97;99803.69;5009496;28;19928;-82
2021/08/08 08:50:11;;;;;;;;;;;21.50;72.00;;;18.89;68.88;99799.75;5025252;22;19925;-86
2021/08/08 08:52:40;;;;;;;;;;;21.40;70.50;;;18.88;69.02;99806.34;5026462;28;20382;-86
2021/08/08 08:55:09;;;;;;;;;;;21.30;71.30;;;18.84;69.67;99811.53;5005441;28;19925;-87
2021/08/08 08:57:37;;;;;;;;;;;21.10;72.50;;;18.90;69.45;99820.69;5025009;28;20369;-86
2021/08/08 09:00:07;;;;;;;;;;;21.10;71.60;;;18.92;69.95;99818.53;5008693;28;19941;-87
2021/08/08 09:02:38;;;;;;;;;;;21.10;72.80;;;18.99;71.19;99810.06;4991633;28;19976;-87
2021/08/08 09:05:06;;;;;;;;;;;21.30;73.40;;;19.04;70.30;99826.66;4991323;28;19925;-87
2021/08/08 09:07:33;;;;;;;;;;;21.50;71.90;;;19.04;70.17;99813.72;4990390;28;20001;-86
2021/08/08 09:10:01;;;;;;;;;;;21.60;71.00;;;19.06;68.80;99824.50;4982861;28;19926;-86
2021/08/08 09:12:30;;;;;;;;;;;21.60;69.80;;;19.02;67.68;99832.44;5005538;28;19926;-87
2021/08/08 09:15:00;;;;;;;;;;;21.40;69.80;;;19.03;68.73;99825.81;4991244;28;20012;-91
2021/08/08 09:17:29;;;;;;;;;;;21.30;71.30;;;19.12;71.50;99828.97;4989477;28;19929;-85
2021/08/08 09:20:03;;;;;;;;;;;21.50;72.00;;;19.20;69.70;99833.19;4982988;28;20052;-87
2021/08/08 09:22:31;;;;;;;;;;;21.70;71.00;;;19.20;69.12;99830.44;5006581;28;19964;-83
2021/08/08 09:24:59;;;;;;;;;;;21.70;70.50;;;19.26;70.58;99824.72;4989668;28;19961;-83
2021/08/08 09:27:34;;;;;;;;;;;21.80;70.50;;;19.26;68.23;99824.72;4985279;28;19922;-91
2021/08/08 09:30:03;;;;;;;;;;;21.80;69.70;;;19.24;68.39;99835.16;5007215;28;19932;-88
2021/08/08 09:32:32;;;;;;;;;;;21.80;70.20;;;19.24;67.93;99842.63;4988331;28;19925;-88
2021/08/08 09:35:13;;;;;;;;;;;21.70;70.20;;;19.21;67.91;99845.88;4989615;28;20390;-94
2021/08/08 09:37:41;;;;;;;;;;;21.50;70.70;;;19.09;67.78;99857.88;4998489;28;19913;-91
2021/08/08 09:40:16;;;;;;;;;;;21.40;69.90;;;19.08;68.67;99860.94;5006723;28;20309;-89
2021/08/08 09:42:46;;;;;;;;;;;21.40;70.70;;;19.11;69.45;99861.25;4985430;28;20311;-92
2021/08/08 09:45:17;;;;;;;;;;;21.40;71.60;;;19.11;69.16;99858.50;5010829;28;19922;-87
2021/08/08 09:47:45;;;;;;;;;;;21.50;70.80;;;19.18;70.18;99854.69;4991810;28;20441;-87
2021/08/08 09:50:16;;;;;;;;;;;21.60;71.30;;;19.25;69.94;99861.69;4987293;28;19921;-87
2021/08/08 09:52:50;;;;;;;;;;;21.80;70.70;;;19.26;68.34;99862.50;4987570;28;19965;-88
2021/08/08 09:55:23;;;;;;;;;;;21.80;69.50;;;19.27;68.28;99867.78;4992868;28;19988;-91
2021/08/08 09:57:50;;;;;;;;;;;21.70;70.00;;;19.26;67.78;99862.50;5001951;28;19926;-86
2021/08/08 10:00:29;;;;;;;;;;;21.70;70.30;;;19.18;68.91;99871.25;4981334;28;19928;-95
2021/08/08 10:06:25;;;;;;;;;;;21.60;70.00;;;19.08;65.73;99872.78;4916186;29;20383;-90
2021/08/08 10:08:52;;;;;;;;;;;21.50;69.50;;;19.12;66.66;99878.63;4911904;29;20362;-89
2021/08/08 10:11:20;;;;;;;;;;;21.40;69.40;;;19.13;67.55;99872.84;4911520;29;20345;-90
2021/08/08 10:13:52;;;;;;;;;;;21.30;70.30;;;19.17;68.57;99875.09;4912414;29;19923;-91
2021/08/08 10:16:20;;;;;;;;;;;21.40;70.80;;;19.21;65.97;99881.75;4911441;29;20011;-90
2021/08/08 10:18:51;;;;;;;;;;;21.50;70.30;;;19.13;67.54;99872.84;4911570;29;19938;-86
2021/08/08 10:21:19;;;;;;;;;;;21.50;69.60;;;19.14;66.18;99876.44;4911897;29;19983;-86
2021/08/08 10:23:48;;;;;;;;;;;21.50;69.60;;;19.18;68.21;99882.28;4912954;29;19941;-88
2021/08/08 10:26:16;;;;;;;;;;;21.60;70.20;;;19.20;66.36;99882.84;4911106;29;20481;-89
2021/08/08 10:28:43;;;;;;;;;;;21.60;70.30;;;19.22;67.26;99880.66;4921724;29;19946;-86
2021/08/08 10:31:13;;;;;;;;;;;21.60;69.50;;;19.27;67.92;99886.25;4930871;29;20035;-85
2021/08/08 10:33:45;;;;;;;;;;;21.70;70.10;;;19.28;66.86;99890.66;4930681;29;19934;-87
2021/08/08 10:36:22;;;;;;;;;;;21.70;68.90;;;19.26;67.24;99885.41;4923464;29;20087;-87
2021/08/08 10:38:52;;;;;;;;;;;21.70;68.80;;;19.26;67.17;99888.16;4911405;29;20411;-87
2021/08/08 10:41:19;;;;;;;;;;;21.60;70.00;;;19.21;66.50;99892.78;4911451;29;19962;-87
2021/08/08 10:43:46;;;;;;;;;;;21.50;69.80;;;19.25;69.60;99891.19;4974950;28;20012;-81
2021/08/08 10:46:15;;;;;;;;;;;21.50;70.50;;;19.26;66.94;99885.41;4990071;28;20012;-88
2021/08/08 10:48:43;;;;;;;;;;;21.60;68.90;;;19.33;67.52;99886.03;4982249;28;20330;-89
2021/08/08 10:51:23;;;;;;;;;;;21.90;69.10;;;19.44;67.10;99883.38;5007372;28;20031;-81
2021/08/08 10:54:05;;;;;;;;;;;22.00;68.40;;;19.59;69.44;99886.34;5010419;28;19921;-88
2021/08/08 10:56:43;;;;;;;;;;;22.20;69.30;;;19.63;65.31;99892.16;4969044;28;19930;-90
2021/08/08 10:59:15;;;;;;;;;;;22.30;67.80;;;19.62;65.13;99890.50;4987830;28;19922;-86
2021/08/08 11:01:42;;;;;;;;;;;22.40;66.80;;;19.61;65.70;99883.31;4997440;28;19929;-87
2021/08/08 11:04:09;;;;;;;;;;;22.40;67.00;;;19.60;65.16;99890.75;4991834;28;20473;-87
2021/08/08 11:06:37;;;;;;;;;;;22.20;67.10;;;19.58;65.33;99894.88;4989604;28;20000;-86
2021/08/08 11:09:06;;;;;;;;;;;22.10;67.50;;;19.51;65.09;99897.81;4988849;28;19996;-87
2021/08/08 11:11:34;;;;;;;;;;;22.00;67.10;;;19.51;66.51;99903.34;4990144;28;20025;-87
2021/08/08 11:14:11;;;;;;;;;;;22.00;68.50;;;19.52;65.79;99905.84;4988990;28;20420;-87
2021/08/08 11:16:38;;;;;;;;;;;22.00;68.00;;;19.47;65.12;99908.53;4969901;28;19957;-86
2021/08/08 11:19:05;;;;;;;;;;;22.00;68.10;;;19.47;66.23;99914.06;4989040;28;19953;-87
2021/08/08 11:21:32;;;;;;;;;;;21.90;68.10;;;19.46;66.14;99904.13;5001565;28;19961;-87
2021/08/08 11:24:01;;;;;;;;;;;21.90;68.60;;;19.50;66.47;99908.03;4997158;28;19969;-86
2021/08/08 11:26:30;;;;;;;;;;;21.90;68.80;;;19.54;66.78;99914.72;4989050;28;19969;-87